Time;durP1;ratioP1;P1;durP2;ratioP2;P2;SDS_P1;SDS_P2;PMS_P1;PMS_P2;Temp;Humidity;BMP_temperature;BMP_pressure;BME280_temperature;BME280_humidity;BME280_pressure;Samples;Min_cycle;Max_cycle;Signal;HPM_P1;HPM_P2
2022/01/23 00:02:09;;;;;;;;;;;;;;;-1.35;54.20;100582.53;4449717;32;34686;-88
2022/01/23 00:04:38;;;;;;;;;;;;;;;-1.15;53.58;100582.63;4449339;32;33861;-88
2022/01/23 00:07:15;;;;;;;;;;;;;;;-1.51;54.32;100591.09;4455716;32;34832;-88
2022/01/23 00:09:46;;;;;;;;;;;;;;;-1.39;54.24;100587.41;4448421;32;33769;-88
2022/01/23 00:12:25;;;;;;;;;;;;;;;-1.70;54.98;100593.50;4449825;32;35731;-89
2022/01/23 00:17:58;;;;;;;;;;;;;;;-1.48;54.62;100607.31;4448436;32;33010;-87
2022/01/23 00:20:27;;;;;;;;;;;;;;;-1.31;54.17;100601.38;4443821;32;34587;-88
2022/01/23 00:22:58;;;;;;;;;;;;;;;-1.49;54.58;100606.44;4453886;32;33863;-88
2022/01/23 00:31:01;;;;;;;;;;;;;;;-1.72;55.03;100606.16;4452051;32;34149;-88
2022/01/23 00:33:29;;;;;;;;;;;;;;;-1.45;54.11;100610.91;4447813;32;34980;-89
2022/01/23 00:35:57;;;;;;;;;;;;;;;-1.58;54.37;100601.75;4453874;32;34254;-88
2022/01/23 00:38:31;;;;;;;;;;;;;;;-1.33;53.91;100611.50;4457163;32;32652;-88
2022/01/23 00:41:00;;;;;;;;;;;;;;;-1.33;53.62;100610.59;4453360;32;33746;-88
2022/01/23 00:43:31;;;;;;;;;;;;;;;-1.43;53.97;100608.41;4450457;32;33962;-89
2022/01/23 00:46:10;;;;;;;;;;;;;;;-1.23;53.67;100599.19;4450606;32;34010;-88
2022/01/23 00:48:50;;;;;;;;;;;;;;;-1.24;53.50;100602.56;4448456;32;33428;-88
2022/01/23 00:51:19;;;;;;;;;;;;;;;-1.32;53.48;100607.28;4450908;32;33688;-87
2022/01/23 00:53:47;;;;;;;;;;;;;;;-1.44;53.63;100610.09;4453568;32;31708;-88
2022/01/23 00:56:17;;;;;;;;;;;;;;;-1.36;53.65;100608.78;4450310;32;34530;-88
2022/01/23 00:58:46;;;;;;;;;;;;;;;-1.22;53.38;100619.66;4452677;32;33386;-88
2022/01/23 01:01:15;;;;;;;;;;;;;;;-1.15;52.75;100619.16;4450816;32;34238;-88
2022/01/23 01:03:44;;;;;;;;;;;;;;;-1.24;53.09;100612.75;4448816;32;34048;-88
2022/01/23 01:06:13;;;;;;;;;;;;;;;-1.41;53.57;100612.78;4459537;32;33439;-88
2022/01/23 01:08:49;;;;;;;;;;;;;;;-1.25;53.48;100605.91;4449382;32;33887;-88
2022/01/23 01:11:58;;;;;;;;;;;;;;;-1.23;53.05;100605.19;4451738;32;34587;-87
2022/01/23 01:14:43;;;;;;;;;;;;;;;-1.23;53.12;100601.75;4449803;32;33231;-87
2022/01/23 01:17:19;;;;;;;;;;;;;;;-0.98;52.38;100594.50;4449688;32;34378;-87
2022/01/23 01:31:05;;;;;;;;;;;;;;;-1.26;53.02;100581.22;4451922;32;34464;-87
2022/01/23 01:33:43;;;;;;;;;;;;;;;-1.29;53.04;100579.41;4457271;32;34176;-87
2022/01/23 01:36:26;;;;;;;;;;;;;;;-1.45;53.56;100582.00;4455969;32;33331;-87
2022/01/23 01:38:55;;;;;;;;;;;;;;;-1.18;52.95;100578.28;4449993;32;33122;-87
2022/01/23 01:41:25;;;;;;;;;;;;;;;-1.40;53.50;100586.53;4451424;32;34097;-87
2022/01/23 01:43:56;;;;;;;;;;;;;;;-1.52;54.28;100589.34;4458698;32;33863;-87
2022/01/23 01:46:45;;;;;;;;;;;;;;;-1.35;53.79;100596.94;4458860;32;34704;-87
2022/01/23 01:49:23;;;;;;;;;;;;;;;-1.28;53.71;100583.72;4459134;32;33882;-87
2022/01/23 01:51:52;;;;;;;;;;;;;;;-1.16;53.33;100593.59;4453810;32;32159;-87
2022/01/23 01:54:22;;;;;;;;;;;;;;;-1.21;53.43;100595.06;4453230;32;34222;-87
2022/01/23 01:57:02;;;;;;;;;;;;;;;-1.34;53.59;100589.37;4461268;32;33512;-87
2022/01/23 01:59:48;;;;;;;;;;;;;;;-1.40;53.99;100596.72;4453752;32;33397;-86
2022/01/23 02:10:36;;;;;;;;;;;;;;;-2.19;56.42;100586.78;4459633;32;34047;-86
2022/01/23 02:13:09;;;;;;;;;;;;;;;-2.11;56.30;100591.41;4462957;32;34014;-86
2022/01/23 02:16:04;;;;;;;;;;;;;;;-2.11;56.51;100579.56;4454968;32;34419;-86
2022/01/23 02:22:30;;;;;;;;;;;;;;;-2.13;56.35;100565.87;4453686;32;34623;-86
2022/01/23 02:52:45;;;;;;;;;;;;;;;-1.45;54.97;100569.28;4403651;32;34159;-87
2022/01/23 02:55:21;;;;;;;;;;;;;;;-1.76;55.71;100572.87;4402158;32;32946;-87
2022/01/23 02:57:55;;;;;;;;;;;;;;;-1.52;55.27;100578.31;4417984;32;33753;-87
2022/01/23 03:00:35;;;;;;;;;;;;;;;-1.73;56.02;100571.34;4456865;32;33019;-86
2022/01/23 03:03:11;;;;;;;;;;;;;;;-1.73;56.23;100571.34;4453991;32;33042;-87
2022/01/23 03:05:41;;;;;;;;;;;;;;;-1.62;56.04;100576.06;4459714;32;33060;-86
2022/01/23 03:08:23;;;;;;;;;;;;;;;-1.49;55.39;100569.94;4453905;32;35047;-88
2022/01/23 03:11:02;;;;;;;;;;;;;;;-1.64;56.05;100573.47;4454915;32;34847;-87
2022/01/23 03:13:49;;;;;;;;;;;;;;;-1.70;56.33;100567.19;4451332;32;34833;-87
2022/01/23 03:24:49;;;;;;;;;;;;;;;-1.55;56.15;100563.75;4454722;32;36457;-87
2022/01/23 03:28:05;;;;;;;;;;;;;;;-1.40;55.86;100567.81;4464186;32;34055;-87
2022/01/23 03:30:34;;;;;;;;;;;;;;;-1.45;56.01;100566.72;4457215;32;34725;-87
2022/01/23 03:33:06;;;;;;;;;;;;;;;-1.38;56.04;100577.28;4456558;32;32621;-86
2022/01/23 03:35:35;;;;;;;;;;;;;;;-1.32;55.52;100572.50;4450124;32;34826;-87
2022/01/23 03:38:03;;;;;;;;;;;;;;;-1.23;55.11;100577.19;4452672;32;33480;-87
2022/01/23 03:40:32;;;;;;;;;;;;;;;-1.10;55.06;100583.72;4449875;32;34125;-86
2022/01/23 03:43:10;;;;;;;;;;;;;;;-1.16;55.30;100579.22;4448953;32;32426;-86
2022/01/23 03:45:59;;;;;;;;;;;;;;;-1.26;55.48;100571.91;4457791;32;33811;-86
2022/01/23 03:51:17;;;;;;;;;;;;;;;-1.30;55.89;100570.91;4453774;32;33947;-87
2022/01/23 03:53:46;;;;;;;;;;;;;;;-1.32;56.15;100571.63;4449346;32;32028;-86
2022/01/23 03:56:17;;;;;;;;;;;;;;;-1.34;55.85;100561.38;4451707;32;34681;-86
2022/01/23 03:58:48;;;;;;;;;;;;;;;-1.44;56.17;100565.97;4448686;32;33106;-86
2022/01/23 04:01:17;;;;;;;;;;;;;;;-1.31;56.05;100558.09;4456472;32;33272;-86
2022/01/23 04:03:48;;;;;;;;;;;;;;;-0.90;54.72;100564.28;4467453;32;34150;-87
2022/01/23 04:06:17;;;;;;;;;;;;;;;-1.07;54.99;100563.50;4456665;32;33062;-86
2022/01/23 04:08:46;;;;;;;;;;;;;;;-1.04;54.94;100562.75;4459113;32;33263;-87
2022/01/23 04:11:15;;;;;;;;;;;;;;;-0.98;54.47;100568.16;4452100;32;34228;-87
2022/01/23 04:13:48;;;;;;;;;;;;;;;-1.01;54.72;100568.03;4452301;32;33817;-87
2022/01/23 04:16:41;;;;;;;;;;;;;;;-1.09;55.42;100571.09;4453442;32;33742;-87
2022/01/23 04:19:31;;;;;;;;;;;;;;;-0.94;54.59;100573.47;4464440;32;33358;-86
2022/01/23 05:01:26;;;;;;;;;;;;;;;-0.18;51.54;100584.56;4409700;32;33963;-87
2022/01/23 05:06:57;;;;;;;;;;;;;;;-0.49;52.78;100581.47;4449822;32;33908;-87
2022/01/23 05:09:26;;;;;;;;;;;;;;;-0.14;51.55;100577.09;4453940;32;31620;-86
2022/01/23 05:11:56;;;;;;;;;;;;;;;-0.64;52.09;100580.78;4459344;32;35379;-88
2022/01/23 05:14:30;;;;;;;;;;;;;;;-0.50;52.55;100582.31;4458743;32;33179;-86
2022/01/23 05:16:59;;;;;;;;;;;;;;;-0.28;51.53;100589.22;4454502;32;34917;-87
2022/01/23 05:19:27;;;;;;;;;;;;;;;-0.30;52.18;100584.88;4452987;32;34401;-87
2022/01/23 05:22:18;;;;;;;;;;;;;;;-0.88;52.57;100594.13;4448763;32;35088;-87
2022/01/23 05:24:51;;;;;;;;;;;;;;;-0.60;52.70;100590.34;4454054;32;32248;-88
2022/01/23 05:27:21;;;;;;;;;;;;;;;-0.66;53.00;100597.69;4452330;32;33870;-87
2022/01/23 05:29:50;;;;;;;;;;;;;;;-0.26;52.00;100605.47;4455928;32;35624;-87
2022/01/23 05:32:20;;;;;;;;;;;;;;;-0.19;51.70;100611.75;4448630;32;33585;-88
2022/01/23 05:34:49;;;;;;;;;;;;;;;-0.31;51.74;100619.69;4449538;32;33275;-87
2022/01/23 05:37:20;;;;;;;;;;;;;;;-0.57;52.13;100617.63;4450944;32;34514;-87
2022/01/23 05:39:48;;;;;;;;;;;;;;;-0.13;51.27;100619.66;4451294;32;34180;-87
2022/01/23 05:42:17;;;;;;;;;;;;;;;-0.47;52.19;100613.00;4453261;32;33968;-87
2022/01/23 05:44:48;;;;;;;;;;;;;;;-0.56;52.81;100619.38;4451347;32;35633;-87
2022/01/23 05:47:16;;;;;;;;;;;;;;;-0.11;51.37;100623.13;4450593;32;34603;-86
2022/01/23 05:49:46;;;;;;;;;;;;;;;-0.21;52.02;100631.19;4453527;32;34311;-86
2022/01/23 05:52:16;;;;;;;;;;;;;;;-0.41;52.05;100635.38;4445806;32;34737;-87
2022/01/23 05:54:47;;;;;;;;;;;;;;;-0.45;52.54;100641.13;4451015;32;33934;-87
2022/01/23 05:57:17;;;;;;;;;;;;;;;-0.41;52.22;100637.94;4457317;32;33539;-87
2022/01/23 05:59:46;;;;;;;;;;;;;;;-0.62;53.21;100642.03;4451782;32;32385;-87
2022/01/23 06:02:14;;;;;;;;;;;;;;;-0.60;52.67;100643.84;4454694;32;34409;-87
2022/01/23 06:04:43;;;;;;;;;;;;;;;-0.43;52.39;100639.53;4452674;32;33411;-87
2022/01/23 06:07:12;;;;;;;;;;;;;;;-0.34;52.00;100645.06;4453551;32;34771;-87
2022/01/23 06:09:43;;;;;;;;;;;;;;;-0.46;52.88;100647.91;4472106;32;35146;-88
2022/01/23 06:12:13;;;;;;;;;;;;;;;-0.44;52.43;100653.94;4452232;32;34817;-87
2022/01/23 06:14:42;;;;;;;;;;;;;;;-0.56;53.58;100649.94;4451598;32;35336;-87
2022/01/23 06:17:12;;;;;;;;;;;;;;;-0.40;53.12;100651.56;4457113;32;33145;-86
2022/01/23 06:19:45;;;;;;;;;;;;;;;-0.37;52.62;100651.69;4455268;32;35243;-87
2022/01/23 06:22:17;;;;;;;;;;;;;;;-0.10;52.48;100658.03;4448891;32;37531;-87
2022/01/23 06:24:48;;;;;;;;;;;;;;;-0.37;52.57;100661.88;4460455;32;33052;-87
2022/01/23 06:27:18;;;;;;;;;;;;;;;-0.28;52.75;100663.19;4454594;32;33348;-86
2022/01/23 06:29:48;;;;;;;;;;;;;;;0.07;52.11;100671.53;4457140;32;34994;-87
2022/01/23 06:32:16;;;;;;;;;;;;;;;-0.07;52.65;100672.62;4454288;32;34716;-87
2022/01/23 06:34:44;;;;;;;;;;;;;;;-0.05;52.61;100671.88;4449911;32;32048;-87
2022/01/23 06:37:13;;;;;;;;;;;;;;;-0.01;53.03;100673.75;4462796;32;34087;-87
2022/01/23 06:39:42;;;;;;;;;;;;;;;-0.31;54.01;100674.94;4463193;32;33999;-87
2022/01/23 06:42:11;;;;;;;;;;;;;;;-0.43;54.43;100665.91;4449211;32;33536;-86
2022/01/23 06:44:41;;;;;;;;;;;;;;;0.04;52.62;100673.97;4455302;32;34101;-86
2022/01/23 06:47:09;;;;;;;;;;;;;;;0.16;52.36;100676.19;4451831;32;34579;-87
2022/01/23 06:49:38;;;;;;;;;;;;;;;-0.13;53.13;100673.19;4461287;32;33548;-87
2022/01/23 06:52:07;;;;;;;;;;;;;;;-0.17;53.14;100673.88;4461847;32;33321;-87
2022/01/23 06:54:36;;;;;;;;;;;;;;;-0.19;52.88;100678.03;4452679;32;33394;-87
2022/01/23 06:57:05;;;;;;;;;;;;;;;-0.09;52.38;100684.44;4454472;32;34909;-86
2022/01/23 06:59:34;;;;;;;;;;;;;;;-0.36;53.46;100689.09;4453396;32;33751;-87
2022/01/23 07:02:05;;;;;;;;;;;;;;;-0.19;52.77;100690.78;4460265;32;34073;-87
2022/01/23 07:04:35;;;;;;;;;;;;;;;-0.02;52.49;100691.56;4455389;32;34757;-87
2022/01/23 07:07:05;;;;;;;;;;;;;;;0.09;52.01;100694.59;4447197;32;35025;-87
2022/01/23 07:09:33;;;;;;;;;;;;;;;0.05;52.46;100692.69;4453096;32;35297;-87
2022/01/23 07:12:02;;;;;;;;;;;;;;;0.26;51.43;100693.66;4448946;32;35270;-87
2022/01/23 07:14:33;;;;;;;;;;;;;;;0.35;51.15;100696.62;4449313;32;33060;-87
2022/01/23 07:17:05;;;;;;;;;;;;;;;0.38;51.21;100695.88;4456841;32;34960;-87
2022/01/23 07:19:35;;;;;;;;;;;;;;;0.47;51.12;100703.94;4454727;32;34466;-87
2022/01/23 07:22:04;;;;;;;;;;;;;;;0.44;50.83;100706.38;4452298;32;32153;-87
2022/01/23 07:24:33;;;;;;;;;;;;;;;0.40;50.57;100702.78;4459984;32;32829;-87
2022/01/23 07:27:11;;;;;;;;;;;;;;;0.70;50.65;100712.63;4457618;32;34063;-88
2022/01/23 07:29:42;;;;;;;;;;;;;;;0.74;50.46;100705.94;4457155;32;34336;-87
2022/01/23 07:32:12;;;;;;;;;;;;;;;0.62;50.17;100696.94;4455681;32;33063;-87
2022/01/23 07:34:41;;;;;;;;;;;;;;;0.72;49.82;100697.34;4453568;32;32434;-87
2022/01/23 07:37:12;;;;;;;;;;;;;;;0.54;50.26;100707.66;4448641;32;35226;-87
2022/01/23 07:39:41;;;;;;;;;;;;;;;0.26;51.35;100703.00;4447465;32;35883;-87
2022/01/23 07:42:12;;;;;;;;;;;;;;;0.17;51.54;100689.03;4452912;32;34756;-87
2022/01/23 07:44:43;;;;;;;;;;;;;;;0.26;51.63;100701.31;4460176;32;33149;-87
2022/01/23 07:47:14;;;;;;;;;;;;;;;-0.16;52.58;100702.81;4451762;32;34265;-87
2022/01/23 07:49:44;;;;;;;;;;;;;;;0.13;52.76;100693.94;4451388;32;33872;-86
2022/01/23 07:52:17;;;;;;;;;;;;;;;0.39;51.24;100701.06;4450974;32;34008;-87
2022/01/23 07:54:46;;;;;;;;;;;;;;;0.71;50.63;100709.25;4459225;32;34217;-87
2022/01/23 07:57:15;;;;;;;;;;;;;;;0.81;50.45;100711.37;4459754;32;34060;-87
2022/01/23 07:59:44;;;;;;;;;;;;;;;0.92;50.06;100705.84;4458612;32;36835;-87
2022/01/23 08:02:14;;;;;;;;;;;;;;;0.87;49.79;100707.31;4451606;32;33850;-87
2022/01/23 08:04:44;;;;;;;;;;;;;;;0.80;50.19;100711.31;4454636;32;34242;-87
2022/01/23 08:07:30;;;;;;;;;;;;;;;1.05;49.74;100713.22;4453796;32;34731;-88
2022/01/23 08:10:00;;;;;;;;;;;;;;;1.11;48.88;100715.13;4451020;32;35386;-88
2022/01/23 08:12:30;;;;;;;;;;;;;;;1.28;49.26;100704.81;4457658;32;34391;-87
2022/01/23 08:14:59;;;;;;;;;;;;;;;1.14;49.48;100715.28;4454029;32;33307;-87
2022/01/23 08:17:33;;;;;;;;;;;;;;;1.14;49.49;100715.28;4456607;32;33787;-88
2022/01/23 08:20:02;;;;;;;;;;;;;;;1.37;48.92;100718.78;4450601;32;36006;-87
2022/01/23 08:22:31;;;;;;;;;;;;;;;1.12;49.17;100728.00;4453369;32;33319;-86
2022/01/23 08:25:01;;;;;;;;;;;;;;;0.75;49.89;100726.44;4452559;32;33069;-86
2022/01/23 08:27:32;;;;;;;;;;;;;;;1.06;50.06;100723.50;4457217;32;32503;-87
2022/01/23 08:30:01;;;;;;;;;;;;;;;1.19;49.56;100739.34;4451422;32;33942;-86
2022/01/23 08:32:30;;;;;;;;;;;;;;;1.29;49.43;100736.34;4449938;32;33623;-86
2022/01/23 08:34:59;;;;;;;;;;;;;;;1.78;47.78;100728.06;4452913;32;31936;-86
2022/01/23 08:37:28;;;;;;;;;;;;;;;1.37;48.86;100739.22;4451039;32;33872;-87
2022/01/23 08:39:57;;;;;;;;;;;;;;;1.76;47.97;100741.63;4455072;32;34995;-86
2022/01/23 08:42:25;;;;;;;;;;;;;;;1.81;47.87;100741.00;4449899;32;34338;-87
2022/01/23 08:44:54;;;;;;;;;;;;;;;1.78;48.20;100756.22;4450611;32;35704;-86
2022/01/23 08:47:23;;;;;;;;;;;;;;;2.06;47.29;100753.06;4445981;32;32077;-87
2022/01/23 08:49:52;;;;;;;;;;;;;;;2.45;46.24;100740.00;4448390;32;32623;-86
2022/01/23 08:52:22;;;;;;;;;;;;;;;2.50;46.75;100741.03;4460982;32;33679;-87
2022/01/23 08:54:51;;;;;;;;;;;;;;;2.69;46.61;100741.69;4447045;32;33809;-87
2022/01/23 08:57:20;;;;;;;;;;;;;;;2.98;45.19;100733.31;4450364;32;36362;-87
2022/01/23 08:59:48;;;;;;;;;;;;;;;2.75;45.38;100741.91;4450282;32;34526;-86
2022/01/23 09:02:21;;;;;;;;;;;;;;;2.74;44.76;100741.03;4447648;32;33416;-86
2022/01/23 09:04:49;;;;;;;;;;;;;;;2.86;44.72;100748.28;4450574;32;33350;-87
2022/01/23 09:07:22;;;;;;;;;;;;;;;2.63;45.55;100750.00;4453745;32;33896;-86
2022/01/23 09:09:50;;;;;;;;;;;;;;;2.23;45.81;100750.25;4452586;32;34135;-87
2022/01/23 09:12:40;;;;;;;;;;;;;;;3.11;44.52;100756.81;4449857;32;34728;-87
2022/01/23 09:15:09;;;;;;;;;;;;;;;3.08;44.38;100759.28;4447778;32;34865;-86
2022/01/23 09:17:37;;;;;;;;;;;;;;;2.71;45.17;100764.00;4449482;32;34011;-86
2022/01/23 09:20:10;;;;;;;;;;;;;;;2.29;46.20;100761.59;4454219;32;34120;-87
2022/01/23 09:22:40;;;;;;;;;;;;;;;2.44;46.06;100761.31;4453117;32;33733;-87
2022/01/23 09:25:08;;;;;;;;;;;;;;;2.33;47.00;100760.03;4450727;32;34139;-87
2022/01/23 09:27:39;;;;;;;;;;;;;;;2.64;45.72;100750.91;4448106;32;34978;-86
2022/01/23 09:30:17;;;;;;;;;;;;;;;2.31;46.78;100759.09;4451723;32;33723;-86
2022/01/23 09:32:45;;;;;;;;;;;;;;;2.28;47.07;100764.09;4451324;32;34390;-86
2022/01/23 09:35:14;;;;;;;;;;;;;;;2.12;47.58;100758.38;4452866;32;32838;-86
2022/01/23 09:37:45;;;;;;;;;;;;;;;2.01;48.65;100767.38;4450222;32;34409;-87
2022/01/23 09:40:13;;;;;;;;;;;;;;;2.15;48.71;100752.53;4454979;32;35879;-87
2022/01/23 09:42:43;;;;;;;;;;;;;;;2.26;46.23;100764.03;4450219;32;33813;-86
2022/01/23 09:45:12;;;;;;;;;;;;;;;2.19;47.34;100761.19;4445894;32;34989;-87
2022/01/23 09:47:41;;;;;;;;;;;;;;;2.38;47.63;100763.63;4453904;32;32503;-87
2022/01/23 09:50:11;;;;;;;;;;;;;;;2.47;47.67;100763.09;4455424;32;33663;-87
2022/01/23 09:52:40;;;;;;;;;;;;;;;2.73;47.60;100761.47;4445944;32;34973;-86
2022/01/23 09:55:11;;;;;;;;;;;;;;;2.68;47.11;100757.88;4451751;32;33293;-86
2022/01/23 09:57:43;;;;;;;;;;;;;;;2.92;45.80;100760.44;4451752;32;34251;-88
2022/01/23 10:00:12;;;;;;;;;;;;;;;2.59;46.95;100762.69;4449018;32;32093;-88
2022/01/23 10:02:41;;;;;;;;;;;;;;;2.76;47.53;100759.91;4460060;32;34354;-87
2022/01/23 10:05:10;;;;;;;;;;;;;;;2.80;46.56;100766.00;4454327;32;33105;-86
2022/01/23 10:07:39;;;;;;;;;;;;;;;2.79;46.88;100759.13;4448310;32;33224;-86
2022/01/23 10:10:13;;;;;;;;;;;;;;;2.93;47.18;100757.06;4451686;32;33881;-86
2022/01/23 10:12:42;;;;;;;;;;;;;;;2.94;46.81;100756.22;4451198;32;33622;-87
2022/01/23 10:15:11;;;;;;;;;;;;;;;3.02;46.54;100759.94;4458899;32;32423;-87
2022/01/23 10:17:39;;;;;;;;;;;;;;;2.91;46.82;100758.69;4449012;32;34822;-87
2022/01/23 10:20:09;;;;;;;;;;;;;;;2.51;47.07;100762.37;4453865;32;33735;-86
2022/01/23 10:22:37;;;;;;;;;;;;;;;2.51;47.90;100755.59;4452475;32;34011;-87
2022/01/23 10:25:11;;;;;;;;;;;;;;;2.71;47.33;100755.44;4450992;32;32594;-85
2022/01/23 10:27:53;;;;;;;;;;;;;;;2.73;47.61;100761.47;4450234;32;33430;-87
2022/01/23 10:30:21;;;;;;;;;;;;;;;3.14;46.18;100754.34;4458799;32;33800;-86
2022/01/23 10:32:57;;;;;;;;;;;;;;;2.68;46.42;100763.88;4452071;32;34521;-88
2022/01/23 10:35:26;;;;;;;;;;;;;;;2.64;47.78;100749.22;4451291;32;34840;-86
2022/01/23 10:37:55;;;;;;;;;;;;;;;2.56;48.30;100758.28;4448488;32;34790;-86
2022/01/23 10:40:27;;;;;;;;;;;;;;;2.72;47.50;100759.72;4451715;32;34901;-86
2022/01/23 10:48:37;;;;;;;;;;;;;;;3.16;47.08;100756.13;4462938;32;34030;-86
2022/01/23 10:51:29;;;;;;;;;;;;;;;3.09;48.07;100743.06;4452570;32;32712;-85
2022/01/23 10:54:15;;;;;;;;;;;;;;;3.34;46.81;100749.91;4434816;32;33933;-86
2022/01/23 10:57:01;;;;;;;;;;;;;;;3.13;48.51;100744.91;4447175;32;33965;-86
2022/01/23 10:59:40;;;;;;;;;;;;;;;3.50;47.42;100741.00;4453414;32;34577;-86
2022/01/23 11:02:09;;;;;;;;;;;;;;;3.59;46.22;100746.44;4450077;32;33482;-87
2022/01/23 11:04:50;;;;;;;;;;;;;;;3.67;46.69;100741.53;4448222;32;33786;-86
2022/01/23 11:07:19;;;;;;;;;;;;;;;3.53;47.60;100741.97;4461801;32;33185;-86
2022/01/23 11:09:48;;;;;;;;;;;;;;;3.57;46.84;100738.66;4454218;32;34432;-87
2022/01/23 11:12:32;;;;;;;;;;;;;;;3.58;46.56;100739.56;4447576;32;33832;-87
2022/01/23 11:17:51;;;;;;;;;;;;;;;3.75;46.83;100742.66;4449620;32;34114;-87
2022/01/23 11:20:30;;;;;;;;;;;;;;;4.03;45.21;100741.78;4453930;32;34762;-87
2022/01/23 11:23:11;;;;;;;;;;;;;;;3.99;45.44;100745.13;4455809;32;32171;-87
2022/01/23 11:25:40;;;;;;;;;;;;;;;3.94;44.84;100750.09;4460615;32;34488;-87
2022/01/23 11:28:10;;;;;;;;;;;;;;;4.07;43.57;100739.38;4450269;32;34406;-89
2022/01/23 11:30:40;;;;;;;;;;;;;;;3.87;44.63;100749.84;4453251;32;33447;-88
2022/01/23 11:33:10;;;;;;;;;;;;;;;3.70;45.57;100739.94;4454330;32;35233;-88
2022/01/23 11:35:38;;;;;;;;;;;;;;;3.83;45.81;100756.59;4459022;32;33825;-87
2022/01/23 11:38:13;;;;;;;;;;;;;;;3.91;45.84;100744.00;4462801;32;32408;-87
2022/01/23 11:54:37;;;;;;;;;;;;;;;3.42;47.90;100731.34;4456201;32;35129;-87
2022/01/23 11:57:26;;;;;;;;;;;;;;;3.52;47.46;100737.66;4464218;32;33875;-87
2022/01/23 11:59:57;;;;;;;;;;;;;;;3.03;49.06;100728.34;4460966;32;33059;-88
2022/01/23 12:02:35;;;;;;;;;;;;;;;3.57;48.38;100725.84;4461351;32;33586;-88
2022/01/23 12:05:31;;;;;;;;;;;;;;;3.18;49.00;100728.84;4458937;32;33840;-88
2022/01/23 12:08:35;;;;;;;;;;;;;;;2.95;49.94;100729.78;4460942;32;33763;-88
2022/01/23 12:17:17;;;;;;;;;;;;;;;3.05;49.78;100713.03;4456493;32;35148;-88
2022/01/23 12:19:47;;;;;;;;;;;;;;;3.05;49.99;100725.84;4454035;32;34008;-88
2022/01/23 12:22:24;;;;;;;;;;;;;;;2.76;50.79;100718.03;4456322;32;32423;-89
2022/01/23 12:24:54;;;;;;;;;;;;;;;3.07;50.00;100716.50;4451070;32;33418;-88
2022/01/23 12:27:26;;;;;;;;;;;;;;;2.62;51.05;100720.09;4451442;32;33991;-88
2022/01/23 12:29:55;;;;;;;;;;;;;;;2.76;50.33;100705.22;4454213;32;35662;-87
2022/01/23 12:32:29;;;;;;;;;;;;;;;2.92;49.97;100704.03;4457746;32;32844;-88
2022/01/23 12:34:58;;;;;;;;;;;;;;;3.04;49.14;100701.87;4462849;32;35500;-89
2022/01/23 12:37:27;;;;;;;;;;;;;;;2.97;48.67;100715.31;4453016;32;35292;-88
2022/01/23 12:40:13;;;;;;;;;;;;;;;2.88;49.36;100704.78;4460318;32;33253;-88
2022/01/23 12:43:01;;;;;;;;;;;;;;;3.05;48.86;100713.03;4460126;32;33989;-88
2022/01/23 12:45:49;;;;;;;;;;;;;;;2.93;49.50;100705.81;4461452;32;31798;-88
2022/01/23 12:48:45;;;;;;;;;;;;;;;2.85;48.39;100714.91;4456727;32;34772;-88
2022/01/23 12:51:39;;;;;;;;;;;;;;;2.37;47.33;100700.44;4449509;32;34337;-88
2022/01/23 12:54:10;;;;;;;;;;;;;;;2.45;48.20;100709.25;4458855;32;33443;-90
2022/01/23 12:56:42;;;;;;;;;;;;;;;2.83;46.54;100706.28;4459572;32;32953;-88
2022/01/23 12:59:14;;;;;;;;;;;;;;;2.77;46.75;100714.63;4462687;32;35113;-88
2022/01/23 13:01:43;;;;;;;;;;;;;;;2.72;45.98;100714.47;4453843;32;33942;-88
2022/01/23 13:04:12;;;;;;;;;;;;;;;2.80;45.63;100708.75;4446526;32;33272;-88
2022/01/23 13:06:49;;;;;;;;;;;;;;;2.34;47.73;100718.22;4458568;32;34242;-91
2022/01/23 13:09:23;;;;;;;;;;;;;;;2.91;45.99;100717.69;4454672;32;36059;-89
2022/01/23 13:12:03;;;;;;;;;;;;;;;2.67;45.71;100717.72;4450027;32;34644;-90
2022/01/23 13:14:40;;;;;;;;;;;;;;;2.66;46.20;100714.28;4452382;32;34964;-89
2022/01/23 13:17:36;;;;;;;;;;;;;;;2.64;46.14;100718.47;4449022;32;33934;-89
2022/01/23 13:31:18;;;;;;;;;;;;;;;2.68;45.92;100704.97;4358710;32;35326;-89
2022/01/23 13:33:47;;;;;;;;;;;;;;;2.87;44.72;100714.13;4363691;32;33712;-89
2022/01/23 13:36:15;;;;;;;;;;;;;;;2.64;44.97;100715.91;4361842;32;33013;-89
2022/01/23 13:38:45;;;;;;;;;;;;;;;2.66;44.74;100710.81;4363990;32;35602;-88
2022/01/23 13:41:23;;;;;;;;;;;;;;;2.84;45.25;100716.59;4360886;32;34331;-88
2022/01/23 13:58:25;;;;;;;;;;;;;;;3.78;42.55;100730.78;4308217;33;33392;-90
2022/01/23 14:01:03;;;;;;;;;;;;;;;3.28;44.13;100729.16;4339189;32;33503;-89
2022/01/23 14:03:32;;;;;;;;;;;;;;;3.73;42.56;100732.34;4350540;32;35128;-91
2022/01/23 14:06:00;;;;;;;;;;;;;;;3.76;43.58;100727.28;4345816;32;34777;-88
2022/01/23 14:08:28;;;;;;;;;;;;;;;3.97;42.35;100721.94;4368342;32;33352;-89
2022/01/23 14:10:59;;;;;;;;;;;;;;;3.99;42.06;100719.44;4373810;32;33266;-88
2022/01/23 14:13:27;;;;;;;;;;;;;;;3.52;43.57;100722.25;4366271;32;35244;-87
2022/01/23 14:15:56;;;;;;;;;;;;;;;3.76;43.69;100716.16;4381702;32;34061;-89
2022/01/23 14:18:26;;;;;;;;;;;;;;;3.73;43.27;100727.22;4375447;32;33322;-88
2022/01/23 14:20:55;;;;;;;;;;;;;;;3.77;43.17;100717.88;4380307;32;32742;-88
2022/01/23 14:23:24;;;;;;;;;;;;;;;3.99;42.95;100714.31;4380489;32;34194;-88
2022/01/23 14:25:53;;;;;;;;;;;;;;;3.72;43.69;100715.22;4394758;32;33870;-90
2022/01/23 14:28:23;;;;;;;;;;;;;;;4.13;43.16;100722.41;4413758;32;33367;-89
2022/01/23 14:30:53;;;;;;;;;;;;;;;3.40;44.57;100722.72;4447329;32;33571;-88
2022/01/23 14:33:23;;;;;;;;;;;;;;;3.48;44.60;100719.53;4451767;32;32352;-88
2022/01/23 14:35:56;;;;;;;;;;;;;;;3.59;44.28;100728.47;4451261;32;33373;-87
2022/01/23 14:38:25;;;;;;;;;;;;;;;3.70;43.92;100729.69;4451238;32;33964;-88
2022/01/23 14:40:55;;;;;;;;;;;;;;;3.94;43.28;100736.38;4447899;32;33462;-88
2022/01/23 14:43:31;;;;;;;;;;;;;;;3.90;42.74;100734.56;4446667;32;34514;-87
2022/01/23 14:46:00;;;;;;;;;;;;;;;3.88;43.04;100744.78;4448501;32;36144;-87
2022/01/23 14:48:29;;;;;;;;;;;;;;;3.47;43.95;100741.78;4456965;32;32921;-89
2022/01/23 14:51:02;;;;;;;;;;;;;;;2.89;46.00;100750.06;4449888;32;33994;-89
2022/01/23 14:53:33;;;;;;;;;;;;;;;3.32;44.85;100749.84;4446085;32;33168;-88
2022/01/23 14:56:02;;;;;;;;;;;;;;;3.52;45.01;100752.19;4449199;32;34204;-87
2022/01/23 14:58:33;;;;;;;;;;;;;;;3.75;43.81;100761.50;4454830;32;33334;-87
2022/01/23 15:01:02;;;;;;;;;;;;;;;3.66;44.14;100755.19;4454259;32;32572;-85
2022/01/23 15:03:38;;;;;;;;;;;;;;;3.74;43.88;100766.56;4455378;32;35043;-86
2022/01/23 15:06:26;;;;;;;;;;;;;;;3.35;45.29;100770.44;4453700;32;34916;-88
2022/01/23 15:08:55;;;;;;;;;;;;;;;3.60;44.21;100774.72;4450141;32;33326;-86
2022/01/23 15:11:23;;;;;;;;;;;;;;;3.49;44.82;100777.75;4452565;32;34628;-87
2022/01/23 15:13:53;;;;;;;;;;;;;;;3.32;45.46;100770.34;4466549;32;31998;-86
2022/01/23 15:16:30;;;;;;;;;;;;;;;3.30;46.08;100777.13;4454248;32;34065;-87
2022/01/23 15:18:59;;;;;;;;;;;;;;;3.28;46.27;100776.19;4456925;32;33716;-89
2022/01/23 15:21:28;;;;;;;;;;;;;;;3.11;46.84;100780.75;4452434;32;34203;-88
2022/01/23 15:23:57;;;;;;;;;;;;;;;3.09;47.13;100794.34;4448336;32;34452;-87
2022/01/23 15:26:25;;;;;;;;;;;;;;;3.14;47.09;100790.22;4452180;32;34659;-87
2022/01/23 15:28:56;;;;;;;;;;;;;;;2.95;47.61;100794.75;4453255;32;34948;-88
2022/01/23 15:31:34;;;;;;;;;;;;;;;3.19;47.11;100793.84;4450310;32;34853;-87
2022/01/23 15:34:03;;;;;;;;;;;;;;;2.83;47.97;100783.16;4451048;32;33478;-89
2022/01/23 15:36:32;;;;;;;;;;;;;;;2.74;48.32;100778.59;4451964;32;34601;-86
2022/01/23 15:39:01;;;;;;;;;;;;;;;2.97;48.00;100789.66;4448350;32;33599;-87
2022/01/23 15:41:30;;;;;;;;;;;;;;;2.49;48.56;100789.63;4450620;32;34383;-87
2022/01/23 15:44:07;;;;;;;;;;;;;;;2.63;47.86;100785.87;4452880;32;32689;-87
2022/01/23 15:46:36;;;;;;;;;;;;;;;2.67;47.22;100797.13;4463041;32;34698;-89
2022/01/23 15:49:05;;;;;;;;;;;;;;;2.10;49.04;100795.88;4450429;32;34476;-86
2022/01/23 15:51:33;;;;;;;;;;;;;;;2.32;48.02;100801.78;4453498;32;34201;-87
2022/01/23 15:54:02;;;;;;;;;;;;;;;2.58;47.63;100800.22;4450852;32;34949;-88
2022/01/23 15:56:30;;;;;;;;;;;;;;;2.12;48.85;100807.03;4452276;32;34518;-86
2022/01/23 15:59:00;;;;;;;;;;;;;;;2.10;48.80;100803.56;4457539;32;33934;-87